createdAt,value
2023-01-18T00:00:28.212Z,1.73
2023-01-18T00:05:30.451Z,1.90
2023-01-18T00:10:34.159Z,1.47
2023-01-18T00:15:37.669Z,1.70
2023-01-18T00:20:39.713Z,1.90
2023-01-18T00:25:43.127Z,2.00
2023-01-18T00:30:45.215Z,1.93
2023-01-18T00:35:55.298Z,2.00
2023-01-18T00:40:58.663Z,2.37
2023-01-18T00:46:00.380Z,2.10
2023-01-18T00:51:03.184Z,2.00
2023-01-18T00:56:08.249Z,2.23
2023-01-18T01:01:10.993Z,2.13
2023-01-18T01:06:14.908Z,1.50
2023-01-18T01:11:18.372Z,2.10
2023-01-18T01:16:21.409Z,2.80
2023-01-18T01:21:23.462Z,2.17
2023-01-18T01:26:27.094Z,2.47
2023-01-18T01:31:29.253Z,1.97
2023-01-18T01:36:31.353Z,2.13
2023-01-18T01:41:35.523Z,2.33
2023-01-18T01:46:43.604Z,2.23
2023-01-18T01:51:49.351Z,2.07
2023-01-18T01:56:57.102Z,2.03
2023-01-18T02:01:59.626Z,2.43
2023-01-18T02:07:01.703Z,2.27
2023-01-18T02:12:05.637Z,2.77
2023-01-18T02:17:19.656Z,2.30
2023-01-18T02:22:42.249Z,2.30
2023-01-18T02:27:51.603Z,2.43
2023-01-18T02:33:04.540Z,2.73
2023-01-18T02:38:10.566Z,2.60
2023-01-18T02:43:16.473Z,2.40
2023-01-18T02:48:22.042Z,2.67
2023-01-18T02:53:24.879Z,1.93
2023-01-18T02:58:31.757Z,2.27
2023-01-18T03:03:36.109Z,2.40
2023-01-18T03:08:43.188Z,2.53
2023-01-18T03:14:01.312Z,2.60
2023-01-18T03:19:11.415Z,2.53
2023-01-18T03:24:16.659Z,2.17
2023-01-18T03:29:21.196Z,2.30
2023-01-18T03:34:30.136Z,2.60
2023-01-18T03:39:37.871Z,2.77
2023-01-18T03:44:45.435Z,3.03
2023-01-18T03:49:49.311Z,2.90
2023-01-18T03:55:05.654Z,2.43
2023-01-18T04:00:09.868Z,2.60
2023-01-18T04:05:13.300Z,2.77
2023-01-18T04:10:15.310Z,2.80
2023-01-18T04:15:17.345Z,3.07
2023-01-18T04:20:20.840Z,2.77
2023-01-18T04:25:23.026Z,3.47
2023-01-18T04:30:25.085Z,3.33
2023-01-18T04:35:28.404Z,2.90
2023-01-18T04:40:30.463Z,3.33
2023-01-18T04:45:32.647Z,2.87
2023-01-18T04:50:44.883Z,3.23
2023-01-18T04:55:48.084Z,2.57
2023-01-18T05:00:49.894Z,3.10
2023-01-18T05:05:55.557Z,3.17
2023-01-18T05:11:04.442Z,3.27
2023-01-18T05:16:08.735Z,3.73
2023-01-18T05:21:13.632Z,3.03
2023-01-18T05:26:20.403Z,2.53
2023-01-18T05:31:26.053Z,3.47
2023-01-18T05:36:29.922Z,2.93
2023-01-18T05:41:31.668Z,2.40
2023-01-18T05:46:33.685Z,3.53
2023-01-18T05:51:37.558Z,3.60
2023-01-18T05:56:39.476Z,3.53
2023-01-18T06:01:41.795Z,2.97
2023-01-18T06:06:44.897Z,3.07
2023-01-18T06:11:47.012Z,3.53
2023-01-18T06:16:49.241Z,3.43
2023-01-18T06:21:52.811Z,4.13
2023-01-18T06:26:54.829Z,3.63
2023-01-18T06:31:56.574Z,3.10
2023-01-18T06:37:03.850Z,3.53
2023-01-18T06:42:06.554Z,3.20
2023-01-18T06:47:08.818Z,2.60
2023-01-18T06:52:12.272Z,3.23
2023-01-18T06:57:14.255Z,4.10
2023-01-18T07:02:16.031Z,3.50
2023-01-18T07:07:19.100Z,3.67
2023-01-18T07:12:21.690Z,4.07
2023-01-18T07:17:23.827Z,3.57
2023-01-18T07:22:27.555Z,2.73
2023-01-18T07:27:29.597Z,3.40
2023-01-18T07:32:31.697Z,2.60
2023-01-18T07:37:35.675Z,3.70
2023-01-18T07:42:38.197Z,3.60
2023-01-18T07:47:41.043Z,4.03
2023-01-18T07:52:44.769Z,2.77
2023-01-18T07:57:47.068Z,2.90
2023-01-18T08:02:50.753Z,2.97
2023-01-18T08:07:54.318Z,2.50
2023-01-18T08:12:56.727Z,2.87
2023-01-18T08:18:02.208Z,3.10
2023-01-18T08:23:05.760Z,2.53
2023-01-18T08:28:08.006Z,2.00
2023-01-18T08:33:10.568Z,2.53
2023-01-18T08:38:16.442Z,2.23
2023-01-18T08:43:18.590Z,2.93
2023-01-18T08:48:20.715Z,2.17
2023-01-18T08:53:24.099Z,2.67
2023-01-18T08:58:26.751Z,2.30
2023-01-18T09:03:28.903Z,2.20
2023-01-18T09:08:32.315Z,1.80
2023-01-18T09:13:34.669Z,2.33
2023-01-18T09:18:37.949Z,2.67
2023-01-18T09:23:41.112Z,2.43
2023-01-18T09:28:43.452Z,1.80
2023-01-18T09:33:52.741Z,2.20
2023-01-18T09:38:57.293Z,2.80
2023-01-18T09:44:02.871Z,2.67
2023-01-18T09:49:07.888Z,3.03
2023-01-18T09:54:23.951Z,3.23
2023-01-18T09:59:33.715Z,3.63
2023-01-18T10:04:42.850Z,2.10
2023-01-18T10:09:48.571Z,2.63
2023-01-18T10:14:57.777Z,1.90
2023-01-18T10:20:00.340Z,2.43
2023-01-18T10:25:14.350Z,2.30
2023-01-18T10:30:32.659Z,2.57
2023-01-18T10:35:39.366Z,2.53
2023-01-18T10:40:47.175Z,2.57
2023-01-18T10:45:48.923Z,3.20
2023-01-18T10:50:53.544Z,2.93
2023-01-18T10:56:01.693Z,3.83
2023-01-18T11:01:04.538Z,3.40
2023-01-18T11:06:08.122Z,3.43
2023-01-18T11:11:18.859Z,3.40
2023-01-18T11:16:22.562Z,3.40
2023-01-18T11:21:25.713Z,2.90
2023-01-18T11:26:28.870Z,3.03
2023-01-18T11:31:42.554Z,2.70
2023-01-18T11:36:45.379Z,2.37
2023-01-18T11:41:48.866Z,3.10
2023-01-18T11:46:55.069Z,3.17
2023-01-18T11:52:00.627Z,3.10
2023-01-18T11:57:04.557Z,3.00
2023-01-18T12:02:31.286Z,3.07
2023-01-18T12:07:45.854Z,2.73
2023-01-18T12:13:05.766Z,3.13
2023-01-18T12:18:25.084Z,2.90
2023-01-18T12:23:45.283Z,3.00
2023-01-18T12:29:04.687Z,3.53
2023-01-18T12:34:14.297Z,3.13
2023-01-18T12:39:28.867Z,4.03
2023-01-18T12:44:53.237Z,3.57
2023-01-18T12:49:58.725Z,3.07
2023-01-18T12:55:05.825Z,2.67
2023-01-18T13:00:16.558Z,3.27
2023-01-18T13:05:23.532Z,3.20
2023-01-18T13:10:28.523Z,2.97
2023-01-18T13:15:42.921Z,3.13
2023-01-18T13:20:57.426Z,3.03
2023-01-18T13:26:10.339Z,3.60
2023-01-18T13:31:14.243Z,2.50
2023-01-18T13:36:19.772Z,2.60
2023-01-18T13:41:24.970Z,2.57
2023-01-18T13:46:30.594Z,3.10
2023-01-18T13:51:56.698Z,2.43
2023-01-18T13:57:16.737Z,2.50
2023-01-18T14:02:26.797Z,3.20
2023-01-18T14:07:30.278Z,2.67
2023-01-18T14:12:49.660Z,2.87
2023-01-18T14:17:58.496Z,2.50
2023-01-18T14:23:13.247Z,3.77
2023-01-18T14:28:20.919Z,3.60
2023-01-18T14:33:30.400Z,3.23
2023-01-18T14:38:32.344Z,2.80
2023-01-18T14:43:37.405Z,3.43
2023-01-18T14:48:47.165Z,2.40
2023-01-18T14:53:52.773Z,3.47
2023-01-18T14:58:57.517Z,2.97
2023-01-18T15:04:02.510Z,2.77
2023-01-18T15:09:06.757Z,3.07
2023-01-18T15:14:13.039Z,2.63
2023-01-18T15:19:20.657Z,3.10
2023-01-18T15:24:24.027Z,3.37
2023-01-18T15:29:30.709Z,3.43
2023-01-18T15:34:36.755Z,2.67
2023-01-18T15:39:48.236Z,3.47
2023-01-18T15:44:53.856Z,3.33
2023-01-18T15:50:00.534Z,3.60
2023-01-18T15:55:07.051Z,3.90
2023-01-18T16:00:26.950Z,4.50
2023-01-18T16:05:30.743Z,4.70
2023-01-18T16:10:33.154Z,4.13
2023-01-18T16:15:35.321Z,4.03
2023-01-18T16:20:39.152Z,4.70
2023-01-18T16:25:41.269Z,4.20
2023-01-18T16:30:49.650Z,4.13
2023-01-18T16:35:53.106Z,4.50
2023-01-18T16:40:54.919Z,5.00
2023-01-18T16:45:57.664Z,4.67
2023-01-18T16:51:01.348Z,4.53
2023-01-18T16:56:03.886Z,4.20
2023-01-18T17:01:08.188Z,4.57
2023-01-18T17:06:16.525Z,6.53
2023-01-18T17:11:18.474Z,7.73
2023-01-18T17:16:20.828Z,5.67
2023-01-18T17:21:23.981Z,5.87
2023-01-18T17:26:25.902Z,5.93
2023-01-18T17:31:27.892Z,5.17
2023-01-18T17:36:31.363Z,4.90
2023-01-18T17:41:33.641Z,4.73
2023-01-18T17:46:36.504Z,4.67
2023-01-18T17:51:39.973Z,5.00
2023-01-18T17:56:41.870Z,4.70
2023-01-18T18:01:43.744Z,4.90
2023-01-18T18:06:54.137Z,5.20
2023-01-18T18:11:57.228Z,5.27
2023-01-18T18:16:58.942Z,6.67
2023-01-18T18:22:02.470Z,5.63
2023-01-18T18:27:04.469Z,5.70
2023-01-18T18:32:07.774Z,6.13
2023-01-18T18:37:10.958Z,6.33
2023-01-18T18:42:13.037Z,6.63
2023-01-18T18:47:14.871Z,7.47
2023-01-18T18:52:18.456Z,6.20
2023-01-18T18:57:20.565Z,6.17
2023-01-18T19:02:22.643Z,5.77
2023-01-18T19:07:26.296Z,5.90
2023-01-18T19:12:28.639Z,5.53
2023-01-18T19:17:32.844Z,5.27
2023-01-18T19:22:38.181Z,6.23
2023-01-18T19:27:40.704Z,6.03
2023-01-18T19:32:42.944Z,5.70
2023-01-18T19:37:47.920Z,6.50
2023-01-18T19:42:50.634Z,5.57
2023-01-18T19:47:53.675Z,6.10
2023-01-18T19:52:57.182Z,7.07
2023-01-18T19:58:00.969Z,6.83
2023-01-18T20:03:04.838Z,7.40
2023-01-18T20:08:09.164Z,6.60
2023-01-18T20:13:11.321Z,7.07
2023-01-18T20:18:13.569Z,6.30
2023-01-18T20:23:17.174Z,7.47
2023-01-18T20:28:19.245Z,8.03
2023-01-18T20:33:21.349Z,7.57
2023-01-18T20:38:26.181Z,7.63
2023-01-18T20:43:28.276Z,6.73
2023-01-18T20:48:30.118Z,6.13
2023-01-18T20:53:34.042Z,5.97
2023-01-18T20:58:36.651Z,10.03
2023-01-18T21:03:38.443Z,8.20
2023-01-18T21:08:41.957Z,7.27
2023-01-18T21:13:43.944Z,7.10
2023-01-18T21:18:45.797Z,6.63
2023-01-18T21:23:48.981Z,6.20
2023-01-18T21:28:51.127Z,5.33
2023-01-18T21:33:54.244Z,4.67
2023-01-18T21:38:57.387Z,6.23
2023-01-18T21:43:59.618Z,5.43
2023-01-18T21:49:02.512Z,6.70
2023-01-18T21:54:06.162Z,5.53
2023-01-18T21:59:08.464Z,5.63
2023-01-18T22:04:12.314Z,5.90
2023-01-18T22:09:15.864Z,5.87
2023-01-18T22:14:17.917Z,5.97
2023-01-18T22:19:20.063Z,5.13
2023-01-18T22:24:23.550Z,6.50
2023-01-18T22:29:25.284Z,5.87
2023-01-18T22:34:27.684Z,7.60
2023-01-18T22:39:31.027Z,6.53
2023-01-18T22:44:33.277Z,7.97
2023-01-18T22:49:35.739Z,8.57
2023-01-18T22:54:39.454Z,6.13
2023-01-18T22:59:41.216Z,5.90
2023-01-18T23:04:43.393Z,6.13
2023-01-18T23:09:46.822Z,5.43
2023-01-18T23:14:49.135Z,5.90
2023-01-18T23:19:51.155Z,6.50
2023-01-18T23:24:54.580Z,5.50
2023-01-18T23:29:57.093Z,5.67
2023-01-18T23:35:04.914Z,5.30
2023-01-18T23:40:12.552Z,5.67
2023-01-18T23:45:14.894Z,5.87
2023-01-18T23:50:29.168Z,5.00
2023-01-18T23:55:32.390Z,6.83
